sensor_id;sensor_type;location;lat;lon;timestamp;P1;durP1;ratioP1;P2;durP2;ratioP2
8993;SDS011;4532;50.886;4.700;2023-07-30T00:00:20;6.15;;;2.50;;
8993;SDS011;4532;50.886;4.700;2023-07-30T00:02:47;5.22;;;2.65;;
8993;SDS011;4532;50.886;4.700;2023-07-30T00:05:14;4.32;;;2.53;;
8993;SDS011;4532;50.886;4.700;2023-07-30T00:07:46;6.47;;;2.65;;
8993;SDS011;4532;50.886;4.700;2023-07-30T00:10:18;6.63;;;2.60;;
8993;SDS011;4532;50.886;4.700;2023-07-30T00:12:45;5.43;;;2.50;;
8993;SDS011;4532;50.886;4.700;2023-07-30T00:15:13;6.53;;;2.55;;
8993;SDS011;4532;50.886;4.700;2023-07-30T00:17:40;8.25;;;2.72;;
8993;SDS011;4532;50.886;4.700;2023-07-30T00:20:07;6.55;;;2.70;;
8993;SDS011;4532;50.886;4.700;2023-07-30T00:22:35;4.13;;;2.22;;
8993;SDS011;4532;50.886;4.700;2023-07-30T00:25:02;6.57;;;2.42;;
8993;SDS011;4532;50.886;4.700;2023-07-30T00:27:30;6.20;;;2.40;;
8993;SDS011;4532;50.886;4.700;2023-07-30T00:29:59;6.30;;;2.35;;
8993;SDS011;4532;50.886;4.700;2023-07-30T00:32:26;7.07;;;2.33;;
8993;SDS011;4532;50.886;4.700;2023-07-30T00:34:56;9.00;;;2.67;;
8993;SDS011;4532;50.886;4.700;2023-07-30T00:37:23;6.30;;;2.85;;
8993;SDS011;4532;50.886;4.700;2023-07-30T00:39:50;3.80;;;2.25;;
8993;SDS011;4532;50.886;4.700;2023-07-30T00:42:17;5.20;;;2.45;;
8993;SDS011;4532;50.886;4.700;2023-07-30T00:44:45;6.93;;;2.35;;
8993;SDS011;4532;50.886;4.700;2023-07-30T00:47:12;6.30;;;2.53;;
8993;SDS011;4532;50.886;4.700;2023-07-30T00:49:42;9.82;;;2.70;;
8993;SDS011;4532;50.886;4.700;2023-07-30T00:52:09;6.40;;;2.60;;
8993;SDS011;4532;50.886;4.700;2023-07-30T00:54:39;7.47;;;2.60;;
8993;SDS011;4532;50.886;4.700;2023-07-30T00:57:06;10.10;;;2.92;;
8993;SDS011;4532;50.886;4.700;2023-07-30T00:59:35;7.10;;;2.58;;
8993;SDS011;4532;50.886;4.700;2023-07-30T01:02:12;10.00;;;2.70;;
8993;SDS011;4532;50.886;4.700;2023-07-30T01:04:40;5.85;;;2.70;;
8993;SDS011;4532;50.886;4.700;2023-07-30T01:07:10;10.30;;;2.45;;
8993;SDS011;4532;50.886;4.700;2023-07-30T01:09:38;9.75;;;2.65;;
8993;SDS011;4532;50.886;4.700;2023-07-30T01:12:05;8.77;;;2.25;;
8993;SDS011;4532;50.886;4.700;2023-07-30T01:14:33;6.20;;;2.58;;
8993;SDS011;4532;50.886;4.700;2023-07-30T01:17:13;7.43;;;1.95;;
8993;SDS011;4532;50.886;4.700;2023-07-30T01:19:44;9.43;;;3.00;;
8993;SDS011;4532;50.886;4.700;2023-07-30T01:22:16;6.57;;;2.20;;
8993;SDS011;4532;50.886;4.700;2023-07-30T01:24:43;5.10;;;2.25;;
8993;SDS011;4532;50.886;4.700;2023-07-30T01:27:14;7.13;;;2.58;;
8993;SDS011;4532;50.886;4.700;2023-07-30T01:29:51;7.45;;;2.70;;
8993;SDS011;4532;50.886;4.700;2023-07-30T01:32:28;7.13;;;2.55;;
8993;SDS011;4532;50.886;4.700;2023-07-30T01:34:57;6.75;;;2.15;;
8993;SDS011;4532;50.886;4.700;2023-07-30T01:37:27;5.95;;;2.30;;
8993;SDS011;4532;50.886;4.700;2023-07-30T01:39:56;9.65;;;2.65;;
8993;SDS011;4532;50.886;4.700;2023-07-30T01:42:28;6.88;;;2.22;;
8993;SDS011;4532;50.886;4.700;2023-07-30T01:44:56;8.27;;;2.60;;
8993;SDS011;4532;50.886;4.700;2023-07-30T01:47:24;5.68;;;2.22;;
8993;SDS011;4532;50.886;4.700;2023-07-30T01:49:51;5.90;;;2.22;;
8993;SDS011;4532;50.886;4.700;2023-07-30T01:52:18;7.72;;;3.08;;
8993;SDS011;4532;50.886;4.700;2023-07-30T01:54:46;7.82;;;2.58;;
8993;SDS011;4532;50.886;4.700;2023-07-30T01:57:15;10.13;;;2.30;;
8993;SDS011;4532;50.886;4.700;2023-07-30T01:59:47;7.40;;;2.20;;
8993;SDS011;4532;50.886;4.700;2023-07-30T02:02:14;7.35;;;2.33;;
8993;SDS011;4532;50.886;4.700;2023-07-30T02:04:44;9.63;;;2.80;;
8993;SDS011;4532;50.886;4.700;2023-07-30T02:07:13;7.30;;;2.33;;
8993;SDS011;4532;50.886;4.700;2023-07-30T02:09:40;9.95;;;2.67;;
8993;SDS011;4532;50.886;4.700;2023-07-30T02:12:07;6.75;;;2.70;;
8993;SDS011;4532;50.886;4.700;2023-07-30T02:14:37;8.70;;;2.92;;
8993;SDS011;4532;50.886;4.700;2023-07-30T02:17:06;6.68;;;2.20;;
8993;SDS011;4532;50.886;4.700;2023-07-30T02:19:34;7.70;;;2.63;;
8993;SDS011;4532;50.886;4.700;2023-07-30T02:22:03;9.95;;;2.78;;
8993;SDS011;4532;50.886;4.700;2023-07-30T02:24:33;8.90;;;2.53;;
8993;SDS011;4532;50.886;4.700;2023-07-30T02:27:03;7.65;;;2.75;;
8993;SDS011;4532;50.886;4.700;2023-07-30T02:29:32;7.80;;;2.13;;
8993;SDS011;4532;50.886;4.700;2023-07-30T02:32:00;7.38;;;2.33;;
8993;SDS011;4532;50.886;4.700;2023-07-30T02:34:27;10.20;;;2.55;;
8993;SDS011;4532;50.886;4.700;2023-07-30T02:36:54;8.20;;;2.53;;
8993;SDS011;4532;50.886;4.700;2023-07-30T02:39:24;7.30;;;2.38;;
8993;SDS011;4532;50.886;4.700;2023-07-30T02:41:54;6.80;;;2.05;;
8993;SDS011;4532;50.886;4.700;2023-07-30T02:44:21;6.93;;;2.40;;
8993;SDS011;4532;50.886;4.700;2023-07-30T02:46:50;5.68;;;2.08;;
8993;SDS011;4532;50.886;4.700;2023-07-30T02:49:20;8.68;;;2.20;;
8993;SDS011;4532;50.886;4.700;2023-07-30T02:51:47;6.03;;;2.40;;
8993;SDS011;4532;50.886;4.700;2023-07-30T02:54:17;7.07;;;1.88;;
8993;SDS011;4532;50.886;4.700;2023-07-30T02:56:47;6.97;;;2.15;;
8993;SDS011;4532;50.886;4.700;2023-07-30T02:59:14;8.48;;;2.15;;
8993;SDS011;4532;50.886;4.700;2023-07-30T03:01:42;8.38;;;2.17;;
8993;SDS011;4532;50.886;4.700;2023-07-30T03:04:09;8.35;;;2.75;;
8993;SDS011;4532;50.886;4.700;2023-07-30T03:06:36;8.30;;;2.50;;
8993;SDS011;4532;50.886;4.700;2023-07-30T03:09:03;9.20;;;2.65;;
8993;SDS011;4532;50.886;4.700;2023-07-30T03:11:30;7.07;;;2.30;;
8993;SDS011;4532;50.886;4.700;2023-07-30T03:13:58;9.40;;;2.22;;
8993;SDS011;4532;50.886;4.700;2023-07-30T03:16:25;9.23;;;2.67;;
8993;SDS011;4532;50.886;4.700;2023-07-30T03:18:55;10.20;;;2.40;;
8993;SDS011;4532;50.886;4.700;2023-07-30T03:21:24;4.68;;;1.95;;
8993;SDS011;4532;50.886;4.700;2023-07-30T03:23:54;8.05;;;1.98;;
8993;SDS011;4532;50.886;4.700;2023-07-30T03:26:21;6.55;;;2.25;;
8993;SDS011;4532;50.886;4.700;2023-07-30T03:28:50;9.30;;;2.17;;
8993;SDS011;4532;50.886;4.700;2023-07-30T03:31:18;7.45;;;2.30;;
8993;SDS011;4532;50.886;4.700;2023-07-30T03:33:47;7.15;;;2.38;;
8993;SDS011;4532;50.886;4.700;2023-07-30T03:36:15;7.65;;;2.20;;
8993;SDS011;4532;50.886;4.700;2023-07-30T03:38:44;8.98;;;2.95;;
8993;SDS011;4532;50.886;4.700;2023-07-30T03:41:11;6.70;;;2.35;;
8993;SDS011;4532;50.886;4.700;2023-07-30T03:43:44;11.80;;;3.03;;
8993;SDS011;4532;50.886;4.700;2023-07-30T03:46:11;7.40;;;2.72;;
8993;SDS011;4532;50.886;4.700;2023-07-30T03:48:38;8.65;;;2.58;;
8993;SDS011;4532;50.886;4.700;2023-07-30T03:51:07;8.70;;;2.22;;
8993;SDS011;4532;50.886;4.700;2023-07-30T03:53:35;7.40;;;2.55;;
8993;SDS011;4532;50.886;4.700;2023-07-30T03:56:05;8.00;;;2.63;;
8993;SDS011;4532;50.886;4.700;2023-07-30T03:58:32;6.95;;;2.10;;
8993;SDS011;4532;50.886;4.700;2023-07-30T04:01:01;9.38;;;2.03;;
8993;SDS011;4532;50.886;4.700;2023-07-30T04:03:29;6.07;;;2.13;;
8993;SDS011;4532;50.886;4.700;2023-07-30T04:05:59;9.23;;;2.50;;
8993;SDS011;4532;50.886;4.700;2023-07-30T04:08:28;8.98;;;2.13;;
8993;SDS011;4532;50.886;4.700;2023-07-30T04:10:57;11.98;;;2.63;;
8993;SDS011;4532;50.886;4.700;2023-07-30T04:13:25;8.82;;;2.47;;
8993;SDS011;4532;50.886;4.700;2023-07-30T04:15:57;7.43;;;2.55;;
8993;SDS011;4532;50.886;4.700;2023-07-30T04:18:26;8.88;;;2.05;;
8993;SDS011;4532;50.886;4.700;2023-07-30T04:20:56;7.13;;;2.55;;
8993;SDS011;4532;50.886;4.700;2023-07-30T04:23:23;7.93;;;2.10;;
8993;SDS011;4532;50.886;4.700;2023-07-30T04:25:52;6.32;;;1.63;;
8993;SDS011;4532;50.886;4.700;2023-07-30T04:28:22;6.20;;;2.05;;
8993;SDS011;4532;50.886;4.700;2023-07-30T04:30:49;11.55;;;3.38;;
8993;SDS011;4532;50.886;4.700;2023-07-30T04:33:19;12.80;;;2.53;;
8993;SDS011;4532;50.886;4.700;2023-07-30T04:35:46;10.30;;;2.60;;
8993;SDS011;4532;50.886;4.700;2023-07-30T04:38:13;8.75;;;2.38;;
8993;SDS011;4532;50.886;4.700;2023-07-30T04:40:40;9.68;;;2.40;;
8993;SDS011;4532;50.886;4.700;2023-07-30T04:43:08;11.18;;;2.85;;
8993;SDS011;4532;50.886;4.700;2023-07-30T04:45:37;10.05;;;2.42;;
8993;SDS011;4532;50.886;4.700;2023-07-30T04:48:06;10.48;;;2.40;;
8993;SDS011;4532;50.886;4.700;2023-07-30T04:50:33;8.98;;;2.40;;
8993;SDS011;4532;50.886;4.700;2023-07-30T04:53:04;12.15;;;2.95;;
8993;SDS011;4532;50.886;4.700;2023-07-30T04:55:32;8.05;;;2.33;;
8993;SDS011;4532;50.886;4.700;2023-07-30T04:58:00;9.75;;;2.40;;
8993;SDS011;4532;50.886;4.700;2023-07-30T05:00:27;11.40;;;3.22;;
8993;SDS011;4532;50.886;4.700;2023-07-30T05:02:54;11.40;;;3.20;;
8993;SDS011;4532;50.886;4.700;2023-07-30T05:05:26;11.93;;;2.80;;
8993;SDS011;4532;50.886;4.700;2023-07-30T05:07:56;17.23;;;2.65;;
8993;SDS011;4532;50.886;4.700;2023-07-30T05:10:23;9.18;;;2.50;;
8993;SDS011;4532;50.886;4.700;2023-07-30T05:12:50;12.77;;;2.88;;
8993;SDS011;4532;50.886;4.700;2023-07-30T05:15:17;9.10;;;2.58;;
8993;SDS011;4532;50.886;4.700;2023-07-30T05:17:44;10.77;;;2.72;;
8993;SDS011;4532;50.886;4.700;2023-07-30T05:20:14;10.77;;;3.03;;
8993;SDS011;4532;50.886;4.700;2023-07-30T05:22:44;11.00;;;2.42;;
8993;SDS011;4532;50.886;4.700;2023-07-30T05:25:11;9.48;;;2.80;;
8993;SDS011;4532;50.886;4.700;2023-07-30T05:27:38;11.32;;;2.58;;
8993;SDS011;4532;50.886;4.700;2023-07-30T05:30:05;9.75;;;2.50;;
8993;SDS011;4532;50.886;4.700;2023-07-30T05:32:35;8.60;;;2.55;;
8993;SDS011;4532;50.886;4.700;2023-07-30T05:35:05;11.05;;;2.97;;
8993;SDS011;4532;50.886;4.700;2023-07-30T05:37:32;13.52;;;3.13;;
8993;SDS011;4532;50.886;4.700;2023-07-30T05:40:02;12.00;;;2.63;;
8993;SDS011;4532;50.886;4.700;2023-07-30T05:42:29;10.63;;;2.83;;
8993;SDS011;4532;50.886;4.700;2023-07-30T05:44:57;8.35;;;2.83;;
8993;SDS011;4532;50.886;4.700;2023-07-30T05:47:24;9.32;;;2.10;;
8993;SDS011;4532;50.886;4.700;2023-07-30T05:49:51;12.15;;;2.92;;
8993;SDS011;4532;50.886;4.700;2023-07-30T05:52:18;13.25;;;3.00;;
8993;SDS011;4532;50.886;4.700;2023-07-30T05:54:46;10.27;;;3.20;;
8993;SDS011;4532;50.886;4.700;2023-07-30T05:57:15;11.13;;;2.63;;
8993;SDS011;4532;50.886;4.700;2023-07-30T05:59:44;9.93;;;2.55;;
8993;SDS011;4532;50.886;4.700;2023-07-30T06:02:14;12.70;;;2.75;;
8993;SDS011;4532;50.886;4.700;2023-07-30T06:04:42;12.45;;;3.45;;
8993;SDS011;4532;50.886;4.700;2023-07-30T06:07:09;15.50;;;3.55;;
8993;SDS011;4532;50.886;4.700;2023-07-30T06:09:39;10.93;;;2.72;;
8993;SDS011;4532;50.886;4.700;2023-07-30T06:12:09;9.50;;;2.65;;
8993;SDS011;4532;50.886;4.700;2023-07-30T06:14:50;15.02;;;3.28;;
8993;SDS011;4532;50.886;4.700;2023-07-30T06:17:34;10.32;;;2.78;;
8993;SDS011;4532;50.886;4.700;2023-07-30T06:20:01;16.98;;;3.22;;
8993;SDS011;4532;50.886;4.700;2023-07-30T06:22:29;11.30;;;2.38;;
8993;SDS011;4532;50.886;4.700;2023-07-30T06:24:57;16.10;;;3.20;;
8993;SDS011;4532;50.886;4.700;2023-07-30T06:27:24;14.35;;;3.17;;
8993;SDS011;4532;50.886;4.700;2023-07-30T06:29:52;9.85;;;2.80;;
8993;SDS011;4532;50.886;4.700;2023-07-30T06:32:24;10.23;;;2.30;;
8993;SDS011;4532;50.886;4.700;2023-07-30T06:34:53;11.63;;;2.92;;
8993;SDS011;4532;50.886;4.700;2023-07-30T06:37:23;10.60;;;3.13;;
8993;SDS011;4532;50.886;4.700;2023-07-30T06:39:52;11.32;;;2.65;;
8993;SDS011;4532;50.886;4.700;2023-07-30T06:42:19;14.45;;;2.83;;
8993;SDS011;4532;50.886;4.700;2023-07-30T06:44:47;15.07;;;3.15;;
8993;SDS011;4532;50.886;4.700;2023-07-30T06:47:14;14.07;;;3.20;;
8993;SDS011;4532;50.886;4.700;2023-07-30T06:49:45;10.75;;;2.95;;
8993;SDS011;4532;50.886;4.700;2023-07-30T06:52:12;8.98;;;2.47;;
8993;SDS011;4532;50.886;4.700;2023-07-30T06:54:40;10.82;;;2.78;;
8993;SDS011;4532;50.886;4.700;2023-07-30T06:57:07;8.50;;;2.42;;
8993;SDS011;4532;50.886;4.700;2023-07-30T06:59:36;8.40;;;2.83;;
8993;SDS011;4532;50.886;4.700;2023-07-30T07:02:03;12.55;;;2.85;;
8993;SDS011;4532;50.886;4.700;2023-07-30T07:04:32;9.45;;;2.55;;
8993;SDS011;4532;50.886;4.700;2023-07-30T07:06:59;10.32;;;2.75;;
8993;SDS011;4532;50.886;4.700;2023-07-30T07:09:30;15.45;;;2.38;;
8993;SDS011;4532;50.886;4.700;2023-07-30T07:11:57;9.20;;;2.88;;
8993;SDS011;4532;50.886;4.700;2023-07-30T07:14:28;10.52;;;2.85;;
8993;SDS011;4532;50.886;4.700;2023-07-30T07:16:57;9.60;;;3.17;;
8993;SDS011;4532;50.886;4.700;2023-07-30T07:19:25;11.85;;;2.92;;
8993;SDS011;4532;50.886;4.700;2023-07-30T07:21:57;12.07;;;3.28;;
8993;SDS011;4532;50.886;4.700;2023-07-30T07:24:27;9.68;;;2.88;;
8993;SDS011;4532;50.886;4.700;2023-07-30T07:26:57;11.18;;;2.85;;
8993;SDS011;4532;50.886;4.700;2023-07-30T07:29:24;13.02;;;3.38;;
8993;SDS011;4532;50.886;4.700;2023-07-30T07:31:52;11.77;;;3.38;;
8993;SDS011;4532;50.886;4.700;2023-07-30T07:34:19;12.32;;;2.95;;
8993;SDS011;4532;50.886;4.700;2023-07-30T07:36:48;8.23;;;2.60;;
8993;SDS011;4532;50.886;4.700;2023-07-30T07:39:15;12.43;;;2.90;;
8993;SDS011;4532;50.886;4.700;2023-07-30T07:41:42;15.95;;;2.92;;
8993;SDS011;4532;50.886;4.700;2023-07-30T07:44:12;14.18;;;2.80;;
8993;SDS011;4532;50.886;4.700;2023-07-30T07:46:43;11.13;;;3.10;;
8993;SDS011;4532;50.886;4.700;2023-07-30T07:49:13;11.48;;;2.38;;
8993;SDS011;4532;50.886;4.700;2023-07-30T07:51:49;11.77;;;2.83;;
8993;SDS011;4532;50.886;4.700;2023-07-30T07:54:16;10.20;;;2.90;;
8993;SDS011;4532;50.886;4.700;2023-07-30T07:56:45;9.93;;;2.47;;
8993;SDS011;4532;50.886;4.700;2023-07-30T07:59:17;11.57;;;2.50;;
8993;SDS011;4532;50.886;4.700;2023-07-30T08:01:44;15.85;;;2.97;;
8993;SDS011;4532;50.886;4.700;2023-07-30T08:04:12;11.98;;;2.90;;
8993;SDS011;4532;50.886;4.700;2023-07-30T08:06:41;9.80;;;2.75;;
8993;SDS011;4532;50.886;4.700;2023-07-30T08:09:11;9.05;;;2.58;;
8993;SDS011;4532;50.886;4.700;2023-07-30T08:11:38;10.10;;;2.65;;
8993;SDS011;4532;50.886;4.700;2023-07-30T08:14:05;9.85;;;2.85;;
8993;SDS011;4532;50.886;4.700;2023-07-30T08:16:33;9.10;;;2.45;;
8993;SDS011;4532;50.886;4.700;2023-07-30T08:19:02;9.80;;;2.40;;
8993;SDS011;4532;50.886;4.700;2023-07-30T08:21:31;11.45;;;2.63;;
8993;SDS011;4532;50.886;4.700;2023-07-30T08:24:08;9.07;;;2.58;;
8993;SDS011;4532;50.886;4.700;2023-07-30T08:26:35;8.85;;;2.33;;
8993;SDS011;4532;50.886;4.700;2023-07-30T08:29:04;9.65;;;2.60;;
8993;SDS011;4532;50.886;4.700;2023-07-30T08:31:32;7.95;;;2.80;;
8993;SDS011;4532;50.886;4.700;2023-07-30T08:34:00;10.60;;;2.42;;
8993;SDS011;4532;50.886;4.700;2023-07-30T08:36:29;6.93;;;2.05;;
8993;SDS011;4532;50.886;4.700;2023-07-30T08:38:57;9.63;;;2.13;;
8993;SDS011;4532;50.886;4.700;2023-07-30T08:41:27;10.60;;;2.33;;
8993;SDS011;4532;50.886;4.700;2023-07-30T08:43:54;8.38;;;2.50;;
8993;SDS011;4532;50.886;4.700;2023-07-30T08:46:21;8.63;;;2.25;;
8993;SDS011;4532;50.886;4.700;2023-07-30T08:48:49;6.82;;;2.13;;
8993;SDS011;4532;50.886;4.700;2023-07-30T08:51:16;7.85;;;2.33;;
8993;SDS011;4532;50.886;4.700;2023-07-30T08:53:47;9.60;;;2.33;;
8993;SDS011;4532;50.886;4.700;2023-07-30T08:56:15;7.75;;;2.85;;
8993;SDS011;4532;50.886;4.700;2023-07-30T08:58:43;9.82;;;2.40;;
8993;SDS011;4532;50.886;4.700;2023-07-30T09:01:12;7.82;;;2.30;;
8993;SDS011;4532;50.886;4.700;2023-07-30T09:03:41;11.23;;;2.53;;
8993;SDS011;4532;50.886;4.700;2023-07-30T09:06:11;11.32;;;2.35;;
8993;SDS011;4532;50.886;4.700;2023-07-30T09:08:40;7.97;;;2.08;;
8993;SDS011;4532;50.886;4.700;2023-07-30T09:11:10;8.70;;;2.50;;
8993;SDS011;4532;50.886;4.700;2023-07-30T09:13:40;10.38;;;2.75;;
8993;SDS011;4532;50.886;4.700;2023-07-30T09:16:11;10.77;;;2.63;;
8993;SDS011;4532;50.886;4.700;2023-07-30T09:18:40;7.88;;;2.33;;
8993;SDS011;4532;50.886;4.700;2023-07-30T09:21:13;8.20;;;2.30;;
8993;SDS011;4532;50.886;4.700;2023-07-30T09:23:43;10.68;;;2.50;;
8993;SDS011;4532;50.886;4.700;2023-07-30T09:26:15;8.73;;;2.10;;
8993;SDS011;4532;50.886;4.700;2023-07-30T09:28:44;7.88;;;2.60;;
8993;SDS011;4532;50.886;4.700;2023-07-30T09:31:16;9.05;;;2.42;;
8993;SDS011;4532;50.886;4.700;2023-07-30T09:33:53;5.55;;;1.75;;
8993;SDS011;4532;50.886;4.700;2023-07-30T09:36:22;7.25;;;1.85;;
8993;SDS011;4532;50.886;4.700;2023-07-30T09:38:49;5.90;;;1.60;;
8993;SDS011;4532;50.886;4.700;2023-07-30T09:41:17;5.15;;;1.40;;
8993;SDS011;4532;50.886;4.700;2023-07-30T09:43:44;5.35;;;1.52;;
8993;SDS011;4532;50.886;4.700;2023-07-30T09:46:14;10.20;;;1.98;;
8993;SDS011;4532;50.886;4.700;2023-07-30T09:48:43;6.18;;;1.70;;
8993;SDS011;4532;50.886;4.700;2023-07-30T09:51:11;5.65;;;1.70;;
8993;SDS011;4532;50.886;4.700;2023-07-30T09:53:38;7.05;;;2.30;;
8993;SDS011;4532;50.886;4.700;2023-07-30T09:56:08;7.97;;;1.90;;
8993;SDS011;4532;50.886;4.700;2023-07-30T09:58:36;5.70;;;1.73;;
8993;SDS011;4532;50.886;4.700;2023-07-30T10:01:04;5.38;;;1.85;;
8993;SDS011;4532;50.886;4.700;2023-07-30T10:03:32;5.05;;;1.50;;
8993;SDS011;4532;50.886;4.700;2023-07-30T10:06:02;5.18;;;1.58;;
8993;SDS011;4532;50.886;4.700;2023-07-30T10:08:36;7.45;;;1.70;;
8993;SDS011;4532;50.886;4.700;2023-07-30T10:11:06;8.40;;;1.75;;
8993;SDS011;4532;50.886;4.700;2023-07-30T10:13:37;4.72;;;1.52;;
8993;SDS011;4532;50.886;4.700;2023-07-30T10:16:11;6.22;;;1.75;;
8993;SDS011;4532;50.886;4.700;2023-07-30T10:18:42;5.45;;;2.10;;
8993;SDS011;4532;50.886;4.700;2023-07-30T10:21:10;6.30;;;1.98;;
8993;SDS011;4532;50.886;4.700;2023-07-30T10:24:01;9.88;;;2.40;;
8993;SDS011;4532;50.886;4.700;2023-07-30T10:26:34;6.18;;;1.98;;
8993;SDS011;4532;50.886;4.700;2023-07-30T10:29:11;6.88;;;2.15;;
8993;SDS011;4532;50.886;4.700;2023-07-30T10:34:19;9.40;;;2.08;;
8993;SDS011;4532;50.886;4.700;2023-07-30T10:36:49;7.28;;;1.77;;
8993;SDS011;4532;50.886;4.700;2023-07-30T10:39:21;9.15;;;2.20;;
8993;SDS011;4532;50.886;4.700;2023-07-30T10:41:58;10.23;;;2.55;;
8993;SDS011;4532;50.886;4.700;2023-07-30T10:44:35;7.55;;;2.17;;
8993;SDS011;4532;50.886;4.700;2023-07-30T10:47:02;5.80;;;2.33;;
8993;SDS011;4532;50.886;4.700;2023-07-30T10:49:35;6.07;;;2.28;;
8993;SDS011;4532;50.886;4.700;2023-07-30T10:52:06;7.65;;;2.20;;
8993;SDS011;4532;50.886;4.700;2023-07-30T10:54:36;6.18;;;2.03;;
8993;SDS011;4532;50.886;4.700;2023-07-30T10:57:08;7.07;;;2.17;;
8993;SDS011;4532;50.886;4.700;2023-07-30T10:59:38;6.72;;;2.17;;
8993;SDS011;4532;50.886;4.700;2023-07-30T11:02:07;6.68;;;2.38;;
8993;SDS011;4532;50.886;4.700;2023-07-30T11:04:35;5.88;;;1.75;;
8993;SDS011;4532;50.886;4.700;2023-07-30T11:07:03;7.45;;;1.92;;
8993;SDS011;4532;50.886;4.700;2023-07-30T11:09:31;6.22;;;2.00;;
8993;SDS011;4532;50.886;4.700;2023-07-30T11:12:00;6.15;;;1.50;;
8993;SDS011;4532;50.886;4.700;2023-07-30T11:14:29;7.13;;;2.20;;
8993;SDS011;4532;50.886;4.700;2023-07-30T11:16:59;6.03;;;1.92;;
8993;SDS011;4532;50.886;4.700;2023-07-30T11:19:27;6.03;;;1.92;;
8993;SDS011;4532;50.886;4.700;2023-07-30T11:21:57;7.28;;;1.80;;
8993;SDS011;4532;50.886;4.700;2023-07-30T11:24:36;10.30;;;2.20;;
8993;SDS011;4532;50.886;4.700;2023-07-30T11:27:04;4.18;;;1.60;;
8993;SDS011;4532;50.886;4.700;2023-07-30T11:29:34;8.65;;;1.83;;
8993;SDS011;4532;50.886;4.700;2023-07-30T11:32:01;8.07;;;1.83;;
8993;SDS011;4532;50.886;4.700;2023-07-30T11:34:31;6.85;;;2.00;;
8993;SDS011;4532;50.886;4.700;2023-07-30T11:37:05;9.88;;;2.10;;
8993;SDS011;4532;50.886;4.700;2023-07-30T11:39:35;6.45;;;1.88;;
8993;SDS011;4532;50.886;4.700;2023-07-30T11:42:06;6.53;;;2.00;;
8993;SDS011;4532;50.886;4.700;2023-07-30T11:44:35;5.75;;;1.60;;
8993;SDS011;4532;50.886;4.700;2023-07-30T11:47:07;5.97;;;1.60;;
8993;SDS011;4532;50.886;4.700;2023-07-30T11:49:36;5.85;;;1.92;;
8993;SDS011;4532;50.886;4.700;2023-07-30T11:52:07;5.05;;;1.90;;
8993;SDS011;4532;50.886;4.700;2023-07-30T11:54:36;7.95;;;1.85;;
8993;SDS011;4532;50.886;4.700;2023-07-30T11:57:07;7.35;;;1.83;;
8993;SDS011;4532;50.886;4.700;2023-07-30T11:59:35;6.55;;;1.73;;
8993;SDS011;4532;50.886;4.700;2023-07-30T12:02:05;5.18;;;1.55;;
8993;SDS011;4532;50.886;4.700;2023-07-30T12:04:45;5.60;;;1.55;;
8993;SDS011;4532;50.886;4.700;2023-07-30T12:07:27;7.60;;;1.60;;
8993;SDS011;4532;50.886;4.700;2023-07-30T12:10:06;5.65;;;1.63;;
8993;SDS011;4532;50.886;4.700;2023-07-30T12:12:50;4.10;;;1.20;;
8993;SDS011;4532;50.886;4.700;2023-07-30T12:15:22;4.57;;;1.50;;
8993;SDS011;4532;50.886;4.700;2023-07-30T12:17:49;6.22;;;1.42;;
8993;SDS011;4532;50.886;4.700;2023-07-30T12:20:16;6.22;;;1.60;;
8993;SDS011;4532;50.886;4.700;2023-07-30T12:22:44;4.15;;;1.13;;
8993;SDS011;4532;50.886;4.700;2023-07-30T12:25:11;4.28;;;1.00;;
8993;SDS011;4532;50.886;4.700;2023-07-30T12:27:40;2.53;;;1.00;;
8993;SDS011;4532;50.886;4.700;2023-07-30T12:30:10;5.20;;;1.30;;
8993;SDS011;4532;50.886;4.700;2023-07-30T12:32:37;3.63;;;1.10;;
8993;SDS011;4532;50.886;4.700;2023-07-30T12:35:07;3.53;;;1.30;;
8993;SDS011;4532;50.886;4.700;2023-07-30T12:37:34;5.28;;;1.58;;
8993;SDS011;4532;50.886;4.700;2023-07-30T12:40:03;5.93;;;1.70;;
8993;SDS011;4532;50.886;4.700;2023-07-30T12:42:33;4.20;;;1.42;;
8993;SDS011;4532;50.886;4.700;2023-07-30T12:45:02;3.83;;;1.42;;
8993;SDS011;4532;50.886;4.700;2023-07-30T12:47:29;5.00;;;1.42;;
8993;SDS011;4532;50.886;4.700;2023-07-30T12:49:57;5.03;;;1.40;;
8993;SDS011;4532;50.886;4.700;2023-07-30T12:52:26;6.85;;;2.03;;
8993;SDS011;4532;50.886;4.700;2023-07-30T12:54:53;5.35;;;1.70;;
8993;SDS011;4532;50.886;4.700;2023-07-30T12:57:23;6.25;;;1.70;;
8993;SDS011;4532;50.886;4.700;2023-07-30T12:59:50;4.85;;;1.23;;
8993;SDS011;4532;50.886;4.700;2023-07-30T13:02:17;4.85;;;1.70;;
8993;SDS011;4532;50.886;4.700;2023-07-30T13:04:45;10.50;;;2.10;;
8993;SDS011;4532;50.886;4.700;2023-07-30T13:07:12;8.65;;;2.15;;
8993;SDS011;4532;50.886;4.700;2023-07-30T13:09:40;7.75;;;1.90;;
8993;SDS011;4532;50.886;4.700;2023-07-30T13:12:11;6.85;;;1.85;;
8993;SDS011;4532;50.886;4.700;2023-07-30T13:14:39;6.03;;;1.80;;
8993;SDS011;4532;50.886;4.700;2023-07-30T13:17:06;5.03;;;1.75;;
8993;SDS011;4532;50.886;4.700;2023-07-30T13:19:33;5.35;;;1.33;;
8993;SDS011;4532;50.886;4.700;2023-07-30T13:22:01;5.63;;;1.63;;
8993;SDS011;4532;50.886;4.700;2023-07-30T13:24:28;5.70;;;1.50;;
8993;SDS011;4532;50.886;4.700;2023-07-30T13:26:58;6.32;;;1.65;;
8993;SDS011;4532;50.886;4.700;2023-07-30T13:29:30;5.30;;;1.35;;
8993;SDS011;4532;50.886;4.700;2023-07-30T13:31:57;13.70;;;1.45;;
8993;SDS011;4532;50.886;4.700;2023-07-30T13:34:27;3.42;;;1.35;;
8993;SDS011;4532;50.886;4.700;2023-07-30T13:36:54;6.00;;;1.42;;
8993;SDS011;4532;50.886;4.700;2023-07-30T13:39:21;6.03;;;1.50;;
8993;SDS011;4532;50.886;4.700;2023-07-30T13:41:48;4.57;;;1.40;;
8993;SDS011;4532;50.886;4.700;2023-07-30T13:44:19;2.97;;;1.15;;
8993;SDS011;4532;50.886;4.700;2023-07-30T13:46:49;3.20;;;1.20;;
8993;SDS011;4532;50.886;4.700;2023-07-30T13:49:21;7.43;;;1.20;;
8993;SDS011;4532;50.886;4.700;2023-07-30T13:51:49;6.35;;;1.73;;
8993;SDS011;4532;50.886;4.700;2023-07-30T13:54:16;6.22;;;1.83;;
8993;SDS011;4532;50.886;4.700;2023-07-30T13:56:49;6.55;;;1.83;;
8993;SDS011;4532;50.886;4.700;2023-07-30T13:59:17;3.25;;;1.50;;
8993;SDS011;4532;50.886;4.700;2023-07-30T14:02:12;5.10;;;1.80;;
8993;SDS011;4532;50.886;4.700;2023-07-30T14:04:52;7.13;;;1.73;;
8993;SDS011;4532;50.886;4.700;2023-07-30T14:07:19;3.88;;;1.75;;
8993;SDS011;4532;50.886;4.700;2023-07-30T14:09:46;3.70;;;1.85;;
8993;SDS011;4532;50.886;4.700;2023-07-30T14:12:13;7.68;;;1.63;;
8993;SDS011;4532;50.886;4.700;2023-07-30T14:14:40;6.63;;;2.13;;
8993;SDS011;4532;50.886;4.700;2023-07-30T14:17:08;4.05;;;1.83;;
8993;SDS011;4532;50.886;4.700;2023-07-30T14:19:40;6.57;;;2.10;;
8993;SDS011;4532;50.886;4.700;2023-07-30T14:22:09;2.88;;;1.67;;
8993;SDS011;4532;50.886;4.700;2023-07-30T14:24:36;4.95;;;1.80;;
8993;SDS011;4532;50.886;4.700;2023-07-30T14:27:04;5.43;;;1.80;;
8993;SDS011;4532;50.886;4.700;2023-07-30T14:29:32;7.00;;;2.17;;
8993;SDS011;4532;50.886;4.700;2023-07-30T14:31:59;5.10;;;2.13;;
8993;SDS011;4532;50.886;4.700;2023-07-30T14:34:26;5.57;;;1.83;;
8993;SDS011;4532;50.886;4.700;2023-07-30T14:36:53;5.43;;;1.98;;
8993;SDS011;4532;50.886;4.700;2023-07-30T14:39:23;4.18;;;2.00;;
8993;SDS011;4532;50.886;4.700;2023-07-30T14:41:50;4.75;;;1.67;;
8993;SDS011;4532;50.886;4.700;2023-07-30T14:44:25;7.60;;;2.28;;
8993;SDS011;4532;50.886;4.700;2023-07-30T14:47:07;7.47;;;2.47;;
8993;SDS011;4532;50.886;4.700;2023-07-30T14:49:36;8.32;;;2.88;;
8993;SDS011;4532;50.886;4.700;2023-07-30T14:52:38;7.47;;;2.47;;
8993;SDS011;4532;50.886;4.700;2023-07-30T14:55:34;6.35;;;2.35;;
8993;SDS011;4532;50.886;4.700;2023-07-30T14:58:06;5.93;;;2.50;;
8993;SDS011;4532;50.886;4.700;2023-07-30T15:00:35;4.97;;;2.15;;
8993;SDS011;4532;50.886;4.700;2023-07-30T15:03:07;6.95;;;1.90;;
8993;SDS011;4532;50.886;4.700;2023-07-30T15:05:37;7.00;;;2.63;;
8993;SDS011;4532;50.886;4.700;2023-07-30T15:08:04;6.22;;;2.10;;
8993;SDS011;4532;50.886;4.700;2023-07-30T15:10:32;5.30;;;2.00;;
8993;SDS011;4532;50.886;4.700;2023-07-30T15:12:59;7.82;;;2.38;;
8993;SDS011;4532;50.886;4.700;2023-07-30T15:15:26;6.60;;;2.20;;
8993;SDS011;4532;50.886;4.700;2023-07-30T15:17:54;5.88;;;2.13;;
8993;SDS011;4532;50.886;4.700;2023-07-30T15:20:23;4.32;;;2.20;;
8993;SDS011;4532;50.886;4.700;2023-07-30T15:22:50;5.82;;;2.28;;
8993;SDS011;4532;50.886;4.700;2023-07-30T15:25:20;6.13;;;2.20;;
8993;SDS011;4532;50.886;4.700;2023-07-30T15:27:48;10.13;;;2.75;;